Terminal Aerodrome Forecast
Issued by NWS

Current Version | Previous Version | Text Only | Print | Product List | Glossary Off
Versions: 1 2 3 4 5 6 7 8 9 10 11 12 13 14 15 16 17 18 19 20 21 22 23 24 25 26 27 28 29 30 31

903
FTUS41 KRNK 161142
TAFLWB
TAF
KLWB 161142Z 1612/1712 00000KT P6SM OVC050
     FM161800 24004KT P6SM OVC035
      TEMPO 1620/1621 2SM -SN OVC015
     FM162200 27004KT 3SM -SN OVC025
     FM170100 30004KT P6SM OVC035
     FM170700 31005KT P6SM OVC015=

USA.gov is the U.S. government's official web portal to all federal, state and local government web resources and services.